Time,TemperatureF,DewpointF,PressureIn,WindDirection,WindDirectionDegrees,WindSpeedMPH,WindSpeedGustMPH,Humidity,HourlyPrecipIn,Conditions,Clouds,dailyrainin,SoftwareType,DateUTC
2013-10-23 00:14:00,38.0,34.0,29.83,WNW,289,6.0,-999.0,86,-99.99,,,-99.99,,2013-10-23 04:14:00,
2013-10-23 00:24:00,38.0,34.0,29.83,WNW,292,7.0,-999.0,86,-99.99,,,-99.99,,2013-10-23 04:24:00,
2013-10-23 00:45:00,38.0,34.0,29.83,WNW,296,6.0,-999.0,87,-99.99,,,-99.99,,2013-10-23 04:45:00,
2013-10-23 00:54:00,38.0,34.0,29.83,WNW,286,5.0,-999.0,87,-99.99,,,-99.99,,2013-10-23 04:54:00,
2013-10-23 01:13:00,38.0,35.0,29.83,WNW,290,4.0,-999.0,88,-99.99,,,-99.99,,2013-10-23 05:13:00,
2013-10-23 01:23:00,37.0,34.0,29.83,WNW,285,4.0,-999.0,88,-99.99,,,-99.99,,2013-10-23 05:23:00,
2013-10-23 01:52:00,37.0,34.0,29.82,WNW,292,4.0,-999.0,89,-99.99,,,-99.99,,2013-10-23 05:52:00,
2013-10-23 02:22:00,37.0,34.0,29.83,NW,313,6.0,-999.0,89,-99.99,,,-99.99,,2013-10-23 06:22:00,
2013-10-23 02:42:00,37.0,34.0,29.82,NW,305,6.0,-999.0,90,-99.99,,,-99.99,,2013-10-23 06:42:00,
2013-10-23 02:52:00,37.0,34.0,29.82,NW,307,6.0,-999.0,90,-99.99,,,-99.99,,2013-10-23 06:52:00,
2013-10-23 03:12:00,37.0,34.0,29.82,NW,322,5.0,-999.0,90,-99.99,,,-99.99,,2013-10-23 07:12:00,
2013-10-23 03:22:00,37.0,34.0,29.82,WNW,298,5.0,-999.0,90,-99.99,,,-99.99,,2013-10-23 07:22:00,
2013-10-23 03:42:00,37.0,34.0,29.82,NW,315,5.0,-999.0,90,-99.99,,,-99.99,,2013-10-23 07:42:00,
2013-10-23 03:52:00,36.0,34.0,29.81,NW,304,5.0,-999.0,91,-99.99,,,-99.99,,2013-10-23 07:52:00,
2013-10-23 04:12:00,36.0,34.0,29.81,NW,313,5.0,-999.0,91,-99.99,,,-99.99,,2013-10-23 08:12:00,
2013-10-23 04:22:00,36.0,34.0,29.81,NW,313,4.0,-999.0,91,-99.99,,,-99.99,,2013-10-23 08:22:00,
2013-10-23 04:52:00,35.0,33.0,29.80,NW,313,4.0,-999.0,91,-99.99,,,-99.99,,2013-10-23 08:52:00,
2013-10-23 05:12:00,36.0,34.0,29.80,NW,304,5.0,-999.0,92,-99.99,,,-99.99,,2013-10-23 09:12:00,
2013-10-23 05:22:00,36.0,34.0,29.80,NW,321,6.0,-999.0,91,-99.99,,,-99.99,,2013-10-23 09:22:00,
2013-10-23 05:43:00,36.0,33.0,29.80,NW,311,4.0,-999.0,90,-99.99,,,-99.99,,2013-10-23 09:43:00,
2013-10-23 05:53:00,36.0,33.0,29.80,WNW,293,4.0,-999.0,90,-99.99,,,-99.99,,2013-10-23 09:53:00,
2013-10-23 06:23:00,36.0,33.0,29.80,NW,310,5.0,-999.0,90,-99.99,,,-99.99,,2013-10-23 10:23:00,
2013-10-23 06:43:00,36.0,33.0,29.80,WNW,300,5.0,-999.0,90,-99.99,,,-99.99,,2013-10-23 10:43:00,
2013-10-23 06:53:00,35.0,33.0,29.80,WNW,299,2.0,-999.0,91,-99.99,,,-99.99,,2013-10-23 10:53:00,
2013-10-23 07:12:00,34.0,32.0,29.81,WNW,299,0.0,-999.0,91,-99.99,,,-99.99,,2013-10-23 11:12:00,
2013-10-23 07:22:00,34.0,32.0,29.81,WNW,300,0.0,-999.0,92,-99.99,,,-99.99,,2013-10-23 11:22:00,
2013-10-23 07:42:00,33.0,31.0,29.82,WNW,299,1.0,-999.0,93,-99.99,,,-99.99,,2013-10-23 11:42:00,
2013-10-23 07:52:00,33.0,31.0,29.82,WNW,300,0.0,-999.0,93,-99.99,,,-99.99,,2013-10-23 11:52:00,
2013-10-23 08:12:00,33.0,31.0,29.82,WSW,252,2.0,-999.0,94,-99.99,,,-99.99,,2013-10-23 12:12:00,
2013-10-23 08:22:00,33.0,31.0,29.82,WSW,252,1.0,-999.0,94,-99.99,,,-99.99,,2013-10-23 12:22:00,
2013-10-23 08:42:00,32.0,30.0,29.82,WSW,252,1.0,-999.0,94,-99.99,,,-99.99,,2013-10-23 12:42:00,
2013-10-23 08:52:00,32.0,30.0,29.83,West,281,2.0,-999.0,94,-99.99,,,-99.99,,2013-10-23 12:52:00,
2013-10-23 09:12:00,33.0,32.0,29.83,WNW,292,6.0,-999.0,95,-99.99,,,-99.99,,2013-10-23 13:12:00,
2013-10-23 09:22:00,33.0,32.0,29.83,WNW,293,6.0,-999.0,95,-99.99,,,-99.99,,2013-10-23 13:22:00,
2013-10-23 09:42:00,33.0,31.0,29.83,WNW,286,7.0,-999.0,94,-99.99,,,-99.99,,2013-10-23 13:42:00,
2013-10-23 09:52:00,34.0,32.0,29.83,WNW,284,7.0,-999.0,94,-99.99,,,-99.99,,2013-10-23 13:52:00,
2013-10-23 10:11:00,35.0,33.0,29.84,WNW,295,7.0,-999.0,93,-99.99,,,-99.99,,2013-10-23 14:11:00,
2013-10-23 10:22:00,36.0,34.0,29.83,WNW,299,6.0,-999.0,91,-99.99,,,-99.99,,2013-10-23 14:22:00,
2013-10-23 10:42:00,37.0,34.0,29.84,WNW,300,6.0,-999.0,88,-99.99,,,-99.99,,2013-10-23 14:42:00,
2013-10-23 10:52:00,38.0,34.0,29.83,NW,310,7.0,-999.0,86,-99.99,,,-99.99,,2013-10-23 14:52:00,
2013-10-23 11:11:00,38.0,33.0,29.83,WNW,286,5.0,-999.0,83,-99.99,,,-99.99,,2013-10-23 15:11:00,
2013-10-23 11:22:00,39.0,33.0,29.84,WSW,242,4.0,-999.0,80,-99.99,,,-99.99,,2013-10-23 15:22:00,
2013-10-23 11:43:00,39.0,31.0,29.84,NW,313,6.0,-999.0,74,-99.99,,,-99.99,,2013-10-23 15:43:00,
2013-10-23 11:53:00,40.0,31.0,29.84,West,271,5.0,-999.0,71,-99.99,,,-99.99,,2013-10-23 15:53:00,
2013-10-23 12:23:00,41.0,31.0,29.83,West,281,7.0,-999.0,68,-99.99,,,-99.99,,2013-10-23 16:23:00,
2013-10-23 12:53:00,42.0,31.0,29.83,WNW,299,7.0,-999.0,66,-99.99,,,-99.99,,2013-10-23 16:53:00,
2013-10-23 13:12:00,42.0,30.0,29.83,WNW,286,9.0,-999.0,61,-99.99,,,-99.99,,2013-10-23 17:12:00,
2013-10-23 13:23:00,42.0,30.0,29.83,NW,314,9.0,-999.0,61,-99.99,,,-99.99,,2013-10-23 17:23:00,
2013-10-23 13:44:00,42.0,28.0,29.82,WSW,246,9.0,-999.0,58,-99.99,,,-99.99,,2013-10-23 17:44:00,
2013-10-23 13:52:00,43.0,29.0,29.82,West,262,6.0,-999.0,57,-99.99,,,-99.99,,2013-10-23 17:52:00,
2013-10-23 14:12:00,44.0,27.0,29.82,West,267,11.0,-999.0,50,-99.99,,,-99.99,,2013-10-23 18:12:00,
2013-10-23 14:22:00,43.0,27.0,29.81,SW,223,7.0,-999.0,53,-99.99,,,-99.99,,2013-10-23 18:22:00,
2013-10-23 14:42:00,43.0,30.0,29.81,NW,320,8.0,-999.0,59,-99.99,,,-99.99,,2013-10-23 18:42:00,
2013-10-23 14:51:00,43.0,29.0,29.80,West,260,8.0,-999.0,57,-99.99,,,-99.99,,2013-10-23 18:51:00,
2013-10-23 15:12:00,44.0,27.0,29.80,WSW,258,6.0,-999.0,51,-99.99,,,-99.99,,2013-10-23 19:12:00,
2013-10-23 15:22:00,43.0,24.0,29.80,West,268,11.0,-999.0,46,-99.99,,,-99.99,,2013-10-23 19:22:00,
2013-10-23 15:42:00,44.0,26.0,29.80,WNW,289,10.0,-999.0,49,-99.99,,,-99.99,,2013-10-23 19:42:00,
2013-10-23 15:53:00,45.0,25.0,29.80,West,279,10.0,-999.0,45,-99.99,,,-99.99,,2013-10-23 19:53:00,
2013-10-23 16:11:00,45.0,24.0,29.80,WNW,292,10.0,-999.0,44,-99.99,,,-99.99,,2013-10-23 20:11:00,
2013-10-23 16:22:00,45.0,27.0,29.80,WNW,297,10.0,-999.0,48,-99.99,,,-99.99,,2013-10-23 20:22:00,
2013-10-23 16:42:00,45.0,26.0,29.80,West,274,8.0,-999.0,47,-99.99,,,-99.99,,2013-10-23 20:42:00,
2013-10-23 16:52:00,44.0,26.0,29.80,WNW,296,12.0,-999.0,48,-99.99,,,-99.99,,2013-10-23 20:52:00,
2013-10-23 17:12:00,42.0,30.0,29.81,WNW,294,15.0,-999.0,61,-99.99,,,-99.99,,2013-10-23 21:12:00,
2013-10-23 17:22:00,41.0,31.0,29.82,WNW,282,13.0,-999.0,67,-99.99,,,-99.99,,2013-10-23 21:22:00,
2013-10-23 17:43:00,42.0,30.0,29.83,WNW,283,13.0,-999.0,63,-99.99,,,-99.99,,2013-10-23 21:43:00,
2013-10-23 17:54:00,42.0,29.0,29.83,West,268,11.0,-999.0,60,-99.99,,,-99.99,,2013-10-23 21:54:00,
2013-10-23 18:13:00,42.0,31.0,29.83,WSW,250,10.0,-999.0,65,-99.99,,,-99.99,,2013-10-23 22:13:00,
2013-10-23 18:24:00,41.0,30.0,29.83,West,265,9.0,-999.0,65,-99.99,,,-99.99,,2013-10-23 22:24:00,
2013-10-23 18:43:00,41.0,31.0,29.84,WNW,285,6.0,-999.0,67,-99.99,,,-99.99,,2013-10-23 22:43:00,
2013-10-23 18:54:00,41.0,31.0,29.84,West,265,6.0,-999.0,67,-99.99,,,-99.99,,2013-10-23 22:54:00,
2013-10-23 19:12:00,40.0,30.0,29.84,WNW,288,7.0,-999.0,66,-99.99,,,-99.99,,2013-10-23 23:12:00,
2013-10-23 19:23:00,40.0,30.0,29.84,West,265,5.0,-999.0,66,-99.99,,,-99.99,,2013-10-23 23:23:00,
2013-10-23 19:42:00,40.0,30.0,29.84,WSW,243,3.0,-999.0,68,-99.99,,,-99.99,,2013-10-23 23:42:00,
2013-10-23 19:52:00,39.0,30.0,29.85,WSW,246,4.0,-999.0,69,-99.99,,,-99.99,,2013-10-23 23:52:00,
2013-10-23 20:12:00,38.0,29.0,29.85,West,265,4.0,-999.0,70,-99.99,,,-99.99,,2013-10-24 00:12:00,
2013-10-23 20:22:00,38.0,29.0,29.85,WSW,243,4.0,-999.0,71,-99.99,,,-99.99,,2013-10-24 00:22:00,
2013-10-23 20:42:00,37.0,29.0,29.85,West,259,4.0,-999.0,72,-99.99,,,-99.99,,2013-10-24 00:42:00,
2013-10-23 20:52:00,37.0,29.0,29.85,WSW,238,4.0,-999.0,73,-99.99,,,-99.99,,2013-10-24 00:52:00,
2013-10-23 21:11:00,36.0,29.0,29.85,SW,227,4.0,-999.0,74,-99.99,,,-99.99,,2013-10-24 01:11:00,
2013-10-23 21:22:00,35.0,28.0,29.85,SW,234,3.0,-999.0,76,-99.99,,,-99.99,,2013-10-24 01:22:00,
2013-10-23 21:42:00,35.0,29.0,29.85,WSW,239,3.0,-999.0,77,-99.99,,,-99.99,,2013-10-24 01:42:00,
2013-10-23 21:52:00,34.0,28.0,29.86,SW,231,3.0,-999.0,79,-99.99,,,-99.99,,2013-10-24 01:52:00,
2013-10-23 22:12:00,34.0,28.0,29.86,West,259,4.0,-999.0,79,-99.99,,,-99.99,,2013-10-24 02:12:00,
2013-10-23 22:22:00,35.0,29.0,29.86,WSW,252,6.0,-999.0,79,-99.99,,,-99.99,,2013-10-24 02:22:00,
2013-10-23 23:12:00,34.0,29.0,29.86,SW,230,4.0,-999.0,81,-99.99,,,-99.99,,2013-10-24 03:12:00,
2013-10-23 23:22:00,34.0,29.0,29.87,WSW,239,4.0,-999.0,82,-99.99,,,-99.99,,2013-10-24 03:22:00,
2013-10-23 23:55:00,33.0,29.0,29.86,WSW,258,4.0,-999.0,84,-99.99,,,-99.99,,2013-10-24 03:55:00,